Time;durP1;ratioP1;P1;durP2;ratioP2;P2;SDS_P1;SDS_P2;PMS_P1;PMS_P2;Temp;Humidity;BMP_temperature;BMP_pressure;BME280_temperature;BME280_humidity;BME280_pressure;Samples;Min_cycle;Max_cycle;Signal;HPM_P1;HPM_P2
2021/12/30 00:02:51;;;;;;;0.20;0.10;;;15.20;99.90;;;;;;20812462;28;20230;-74
2021/12/30 00:12:57;;;;;;;0.20;0.00;;;15.10;99.90;;;;;;20828730;28;20892;-75
2021/12/30 00:23:04;;;;;;;0.20;0.10;;;15.20;99.90;;;;;;20817585;28;20233;-76
2021/12/30 00:33:08;;;;;;;0.20;0.00;;;15.20;99.90;;;;;;20837782;28;20222;-75
2021/12/30 00:43:13;;;;;;;0.20;0.03;;;15.00;99.90;;;;;;20806323;28;20218;-75
2021/12/30 00:53:17;;;;;;;0.20;0.07;;;14.90;99.90;;;;;;20819800;28;20218;-76
2021/12/30 01:03:23;;;;;;;0.20;0.10;;;15.10;99.90;;;;;;20846953;22;20234;-76
2021/12/30 01:13:28;;;;;;;0.20;0.10;;;14.90;99.90;;;;;;20834992;28;20640;-77
2021/12/30 01:23:33;;;;;;;0.20;0.10;;;14.70;99.90;;;;;;20816672;28;20214;-78
2021/12/30 01:33:38;;;;;;;0.20;0.00;;;14.80;99.90;;;;;;20807133;28;20241;-77
2021/12/30 01:43:43;;;;;;;0.20;0.00;;;14.50;99.90;;;;;;20802767;28;20550;-76
2021/12/30 01:53:47;;;;;;;0.20;0.10;;;14.20;99.90;;;;;;20797962;28;20194;-77
2021/12/30 02:03:52;;;;;;;0.20;0.07;;;14.00;99.90;;;;;;20797843;28;20273;-76
2021/12/30 02:13:59;;;;;;;0.20;0.00;;;14.00;99.90;;;;;;20801562;28;20770;-75
2021/12/30 02:24:05;;;;;;;0.20;0.00;;;13.70;99.90;;;;;;20805325;28;20195;-77
2021/12/30 02:34:08;;;;;;;0.20;0.10;;;13.30;99.90;;;;;;20807432;28;20209;-77
2021/12/30 02:44:14;;;;;;;0.20;0.10;;;12.80;99.90;;;;;;20829306;28;20233;-78
2021/12/30 02:54:17;;;;;;;0.20;0.10;;;12.70;99.90;;;;;;20829238;28;20285;-78
2021/12/30 03:04:22;;;;;;;0.20;0.10;;;12.40;99.90;;;;;;20811402;28;20774;-78
2021/12/30 03:14:26;;;;;;;0.20;0.10;;;12.30;99.90;;;;;;20828068;28;20214;-77
2021/12/30 03:24:31;;;;;;;0.20;0.10;;;13.00;99.90;;;;;;20827089;28;20245;-78
2021/12/30 03:34:35;;;;;;;0.20;0.00;;;14.00;99.90;;;;;;20827706;28;20191;-77
2021/12/30 03:44:40;;;;;;;0.20;0.10;;;14.00;99.90;;;;;;20826946;28;20249;-77
2021/12/30 03:54:44;;;;;;;0.20;0.10;;;13.90;99.90;;;;;;20826651;28;20217;-76
2021/12/30 04:04:49;;;;;;;0.20;0.10;;;14.10;99.90;;;;;;20783295;28;20765;-77
2021/12/30 04:14:52;;;;;;;0.20;0.00;;;13.50;99.90;;;;;;20793569;28;20226;-78
2021/12/30 04:24:58;;;;;;;0.20;0.10;;;13.40;99.90;;;;;;20844446;28;20214;-82
2021/12/30 04:35:02;;;;;;;0.20;0.10;;;13.20;99.90;;;;;;20856116;28;20198;-83
2021/12/30 04:45:08;;;;;;;0.20;0.10;;;13.60;99.90;;;;;;20812850;28;20321;-82
2021/12/30 04:55:13;;;;;;;0.20;0.10;;;13.50;99.90;;;;;;20850516;28;20201;-82
2021/12/30 05:05:17;;;;;;;0.20;0.10;;;13.60;99.90;;;;;;20842408;28;20313;-84
2021/12/30 05:15:21;;;;;;;0.20;0.10;;;13.50;99.90;;;;;;20842259;28;20288;-83
2021/12/30 05:25:26;;;;;;;0.20;0.10;;;13.90;99.90;;;;;;20843208;28;20309;-83
2021/12/30 05:35:30;;;;;;;0.20;0.07;;;13.70;99.90;;;;;;20843516;28;20676;-83
2021/12/30 05:45:35;;;;;;;0.47;0.47;;;13.50;99.90;;;;;;20822309;28;20217;-84
2021/12/30 05:55:39;;;;;;;0.20;0.10;;;13.50;99.90;;;;;;20807179;28;20190;-83
2021/12/30 06:05:44;;;;;;;0.20;0.10;;;13.40;99.90;;;;;;20846535;28;20266;-84
2021/12/30 06:15:47;;;;;;;0.20;0.10;;;13.30;99.90;;;;;;20832594;28;20289;-78
2021/12/30 06:25:52;;;;;;;0.20;0.00;;;13.40;99.90;;;;;;20823064;28;20310;-76
2021/12/30 06:35:56;;;;;;;0.30;0.30;;;13.30;99.90;;;;;;20764612;28;20222;-77
2021/12/30 06:46:04;;;;;;;0.20;0.00;;;13.30;99.90;;;;;;20829780;28;20256;-78
2021/12/30 06:56:08;;;;;;;0.20;0.10;;;13.00;99.90;;;;;;20827453;28;20210;-77
2021/12/30 07:06:13;;;;;;;0.20;0.20;;;13.20;99.90;;;;;;20808808;28;20233;-77
2021/12/30 07:16:16;;;;;;;0.20;0.10;;;13.20;99.90;;;;;;20832099;28;20198;-81
2021/12/30 07:26:22;;;;;;;0.20;0.10;;;13.20;99.90;;;;;;20828659;28;20257;-81
2021/12/30 07:36:26;;;;;;;0.20;0.10;;;13.10;99.90;;;;;;20824525;28;20260;-76
2021/12/30 07:46:31;;;;;;;0.20;0.10;;;13.20;99.90;;;;;;20810072;28;20232;-77
2021/12/30 07:56:35;;;;;;;0.20;0.10;;;13.40;99.90;;;;;;20741799;28;20195;-78
2021/12/30 08:06:40;;;;;;;0.20;0.10;;;13.50;99.90;;;;;;20746657;28;20580;-77
2021/12/30 08:16:44;;;;;;;0.20;0.10;;;13.70;99.90;;;;;;20826569;28;20209;-78
2021/12/30 08:26:49;;;;;;;0.20;0.10;;;13.70;99.90;;;;;;20839100;28;20237;-76
2021/12/30 08:36:53;;;;;;;0.20;0.10;;;13.90;99.90;;;;;;20834327;28;20557;-77
2021/12/30 08:46:58;;;;;;;0.20;0.00;;;13.90;99.90;;;;;;20819221;28;20226;-75
2021/12/30 08:57:02;;;;;;;0.20;0.10;;;14.00;99.90;;;;;;20831630;28;20238;-74
2021/12/30 09:07:07;;;;;;;0.20;0.00;;;14.20;99.90;;;;;;20809129;28;20261;-75
2021/12/30 09:17:15;;;;;;;0.20;0.10;;;14.60;99.90;;;;;;20824444;28;20206;-75
2021/12/30 09:27:21;;;;;;;0.20;0.10;;;14.70;99.90;;;;;;20828341;28;20222;-78
2021/12/30 09:37:25;;;;;;;0.20;0.10;;;14.90;99.90;;;;;;20830322;28;20202;-74
2021/12/30 09:47:32;;;;;;;1.07;1.07;;;15.30;99.90;;;;;;20831763;28;20309;-76
2021/12/30 09:57:36;;;;;;;0.20;0.10;;;15.70;99.90;;;;;;20819739;28;20297;-77
2021/12/30 10:07:42;;;;;;;0.20;0.10;;;16.60;99.90;;;;;;20802303;28;20236;-75
2021/12/30 10:17:55;;;;;;;0.20;0.10;;;17.20;99.90;;;;;;20828815;28;20260;-76
2021/12/30 10:28:21;;;;;;;0.20;0.10;;;17.80;99.90;;;;;;20827158;28;20687;-75
2021/12/30 10:38:29;;;;;;;0.20;0.00;;;18.40;99.90;;;;;;20828148;28;20624;-75
2021/12/30 10:48:35;;;;;;;0.20;0.00;;;19.20;99.90;;;;;;20826543;28;20324;-75
2021/12/30 10:58:40;;;;;;;0.20;0.10;;;19.10;99.90;;;;;;20825030;28;20204;-78
2021/12/30 11:08:49;;;;;;;0.20;0.00;;;19.00;99.90;;;;;;20825765;28;20719;-76
2021/12/30 11:18:54;;;;;;;0.47;0.47;;;20.50;99.90;;;;;;20743265;28;20199;-76
2021/12/30 11:29:00;;;;;;;0.20;0.07;;;20.80;99.90;;;;;;20759318;28;20240;-77
2021/12/30 11:39:12;;;;;;;0.20;0.00;;;21.20;99.90;;;;;;20815818;28;20282;-76
2021/12/30 11:49:17;;;;;;;0.20;0.00;;;21.60;99.90;;;;;;20840901;28;20686;-76
2021/12/30 11:59:38;;;;;;;0.87;0.30;;;22.40;99.90;;;;;;20836736;28;20290;-79
2021/12/30 12:09:44;;;;;;;0.20;0.00;;;22.50;99.90;;;;;;20778158;28;20242;-77
2021/12/30 12:20:11;;;;;;;0.20;0.10;;;23.20;99.90;;;;;;20794476;28;20194;-77
2021/12/30 12:30:26;;;;;;;0.20;0.00;;;23.80;99.90;;;;;;20807561;28;20222;-78
2021/12/30 12:40:36;;;;;;;0.20;0.00;;;24.00;99.90;;;;;;20801389;28;20197;-79
2021/12/30 12:50:42;;;;;;;0.20;0.00;;;24.40;99.90;;;;;;20820304;28;20234;-78
2021/12/30 13:00:45;;;;;;;0.20;0.00;;;24.90;99.90;;;;;;20824739;28;20234;-78
2021/12/30 13:10:51;;;;;;;1.45;1.35;;;24.50;99.90;;;;;;20804907;28;20648;-77
2021/12/30 13:20:55;;;;;;;0.20;0.10;;;24.10;99.90;;;;;;20817600;28;20202;-77
2021/12/30 13:31:18;;;;;;;0.20;0.00;;;24.50;99.90;;;;;;20822924;28;20230;-74
2021/12/30 13:41:23;;;;;;;0.20;0.00;;;24.20;99.90;;;;;;20752237;28;20286;-77
2021/12/30 13:51:31;;;;;;;0.20;0.00;;;23.90;99.90;;;;;;20749308;28;20660;-75
2021/12/30 14:01:37;;;;;;;0.20;0.00;;;24.30;99.90;;;;;;20778096;28;20325;-75
2021/12/30 14:11:45;;;;;;;0.25;0.13;;;24.30;99.90;;;;;;20819202;28;20242;-80
2021/12/30 14:21:49;;;;;;;0.20;0.00;;;24.10;99.90;;;;;;20789616;28;20278;-78
2021/12/30 14:31:59;;;;;;;0.20;0.10;;;25.00;99.90;;;;;;20770025;28;20257;-78
2021/12/30 14:42:06;;;;;;;0.20;0.00;;;25.20;99.90;;;;;;20797625;28;20259;-77
2021/12/30 14:52:17;;;;;;;0.20;0.00;;;24.60;99.90;;;;;;20794035;28;20230;-79
2021/12/30 15:02:23;;;;;;;0.20;0.10;;;22.60;99.90;;;;;;20747609;28;20257;-78
2021/12/30 15:12:29;;;;;;;0.20;0.00;;;21.40;99.90;;;;;;20789764;28;20210;-79
2021/12/30 15:22:32;;;;;;;0.20;0.10;;;22.50;99.90;;;;;;20817975;28;20269;-76
2021/12/30 15:32:38;;;;;;;0.20;0.00;;;22.80;99.90;;;;;;20822578;28;20197;-75
2021/12/30 15:42:44;;;;;;;0.20;0.00;;;22.60;99.90;;;;;;20789687;28;20258;-79
2021/12/30 15:52:52;;;;;;;0.20;0.00;;;22.30;99.90;;;;;;20779581;28;20561;-77
2021/12/30 16:02:56;;;;;;;0.20;0.10;;;20.90;99.90;;;;;;20760707;28;20227;-74
2021/12/30 16:13:01;;;;;;;0.20;0.17;;;18.80;99.90;;;;;;20778061;28;20213;-78
2021/12/30 16:23:05;;;;;;;0.20;0.00;;;17.50;99.90;;;;;;20761440;28;20227;-78
2021/12/30 16:33:12;;;;;;;0.20;0.10;;;16.80;99.90;;;;;;20734282;28;20187;-77
2021/12/30 16:43:15;;;;;;;0.20;0.00;;;16.50;99.90;;;;;;20758141;28;20250;-77
2021/12/30 16:53:20;;;;;;;0.20;0.03;;;16.20;99.90;;;;;;20829377;28;20205;-77
2021/12/30 17:03:24;;;;;;;0.20;0.10;;;15.60;99.90;;;;;;20830962;28;20586;-78
2021/12/30 17:13:30;;;;;;;0.20;0.10;;;15.50;99.90;;;;;;20832691;28;20285;-79
2021/12/30 17:23:34;;;;;;;0.20;0.13;;;15.10;99.90;;;;;;20830430;28;20637;-80
2021/12/30 17:33:41;;;;;;;0.20;0.10;;;15.30;99.90;;;;;;20830791;28;20575;-78
2021/12/30 17:43:44;;;;;;;0.20;0.10;;;15.00;99.90;;;;;;20829310;28;20250;-77
2021/12/30 17:53:50;;;;;;;0.20;0.10;;;15.20;99.90;;;;;;20828989;28;20706;-78
2021/12/30 18:03:53;;;;;;;0.20;0.00;;;15.10;99.90;;;;;;20807492;28;20276;-78
2021/12/30 18:13:59;;;;;;;0.20;0.00;;;14.90;99.90;;;;;;20815415;28;20211;-79
2021/12/30 18:24:09;;;;;;;1.37;1.37;;;14.70;99.90;;;;;;20831877;28;20312;-79
2021/12/30 18:34:15;;;;;;;0.20;0.10;;;14.50;99.90;;;;;;20825627;28;20198;-82
2021/12/30 18:44:19;;;;;;;0.20;0.03;;;14.40;99.90;;;;;;20811608;28;20234;-78
2021/12/30 18:54:25;;;;;;;0.20;0.00;;;14.30;99.90;;;;;;20821627;28;20285;-79
2021/12/30 19:04:30;;;;;;;0.20;0.00;;;14.40;99.90;;;;;;20820116;28;20312;-80
2021/12/30 19:14:36;;;;;;;0.20;0.10;;;14.30;99.90;;;;;;20841718;28;20194;-85
2021/12/30 19:24:43;;;;;;;0.20;0.10;;;14.10;99.90;;;;;;20837242;28;20232;-80
2021/12/30 19:34:49;;;;;;;0.20;0.00;;;13.80;99.90;;;;;;20739465;28;20640;-84
2021/12/30 19:44:54;;;;;;;0.20;0.10;;;13.60;99.90;;;;;;22451125;22;20265;-77
2021/12/30 19:55:00;;;;;;;0.20;0.00;;;13.40;99.90;;;;;;20881619;28;20611;-76
2021/12/30 20:05:15;;;;;;;0.20;0.10;;;13.30;99.90;;;;;;20846945;28;20581;-78
2021/12/30 20:15:20;;;;;;;0.20;0.00;;;13.10;99.90;;;;;;20831859;28;20206;-77
2021/12/30 20:25:27;;;;;;;0.20;0.10;;;12.70;99.90;;;;;;20870251;28;20222;-77
2021/12/30 20:35:34;;;;;;;0.20;0.10;;;12.50;99.90;;;;;;20891178;28;20205;-76
2021/12/30 20:45:38;;;;;;;0.20;0.10;;;12.30;99.90;;;;;;20909694;28;20813;-78
2021/12/30 20:55:44;;;;;;;0.20;0.10;;;12.30;99.90;;;;;;20839600;28;20222;-78
2021/12/30 21:05:48;;;;;;;0.20;0.00;;;12.30;99.90;;;;;;20743050;28;20226;-76
2021/12/30 21:15:54;;;;;;;0.20;0.10;;;12.50;99.90;;;;;;20782957;28;20218;-76
2021/12/30 21:25:58;;;;;;;0.20;0.10;;;12.90;99.90;;;;;;20805665;28;20200;-77
2021/12/30 21:36:03;;;;;;;0.20;0.10;;;13.30;99.90;;;;;;20824012;28;20320;-77
2021/12/30 21:46:07;;;;;;;0.20;0.00;;;13.30;99.90;;;;;;20856187;28;20348;-77
2021/12/30 21:56:12;;;;;;;0.20;0.10;;;13.00;99.90;;;;;;20905462;28;20263;-77
2021/12/30 22:06:16;;;;;;;0.20;0.10;;;12.10;99.90;;;;;;20886577;28;20212;-78
2021/12/30 22:16:22;;;;;;;0.20;0.10;;;11.80;99.90;;;;;;20857505;28;20248;-77
2021/12/30 22:26:46;;;;;;;0.20;0.10;;;12.30;99.90;;;;;;20883794;28;20200;-77
2021/12/30 22:36:51;;;;;;;0.20;0.10;;;13.30;99.90;;;;;;20883341;28;20308;-75
2021/12/30 22:46:55;;;;;;;0.20;0.10;;;13.60;99.90;;;;;;20881978;28;20233;-74
2021/12/30 22:57:01;;;;;;;0.20;0.10;;;13.80;99.90;;;;;;20897321;28;20228;-76
2021/12/30 23:07:04;;;;;;;0.20;0.10;;;13.80;99.90;;;;;;20898005;28;20216;-77
2021/12/30 23:17:10;;;;;;;0.20;0.00;;;13.90;99.90;;;;;;20785845;28;20325;-76
2021/12/30 23:27:13;;;;;;;0.27;0.27;;;14.10;99.90;;;;;;20734277;28;20733;-76
2021/12/30 23:37:20;;;;;;;0.20;0.10;;;14.20;99.90;;;;;;20732176;28;20246;-76
2021/12/30 23:47:24;;;;;;;0.47;0.20;;;14.10;99.90;;;;;;20732070;28;20237;-76
2021/12/30 23:57:29;;;;;;;0.20;0.00;;;14.30;99.90;;;;;;20700005;28;20227;-77
